Farley, Iowa
Current Conditions -  °F | °C
As of 10:53 AM on Saturday 25 Oct 2014 (Local Time) from KDBQ Reporting Station
Clear Clear  
Wind Chill: 17°   Ceiling: Unl
Heat Index: 17°   Visibility: 10mi
Dew Point:   Wind: 15mph
Humidity: 41%   Direction: 340°NNW
Pressure: 30.03"   Gusts: NA
Location:  42.44°N, 91.01°W
Report Text: KDBQ 251553Z 34013KT 10SM CLR 17/03 A3003 RMK AO2 SLP170 T01670033
Loading
Personal Weather Stations






























Interactive Weather Map
Tropical Storm Tracking
New forecast layout! Learn more

10-Day Weather Forecast

Advertisements
Track Severe Weather on mobile